Time;durP1;ratioP1;P1;durP2;ratioP2;P2;SDS_P1;SDS_P2;PMS_P1;PMS_P2;Temp;Humidity;BMP_temperature;BMP_pressure;BME280_temperature;BME280_humidity;BME280_pressure;Samples;Min_cycle;Max_cycle;Signal;HPM_P1;HPM_P2
2023/03/17 00:02:00;;;;;;;242.70;140.60;;;;;;;0.47;65.61;101213.45;110327;1264;22892;-82
2023/03/17 00:04:31;;;;;;;202.60;105.30;;;;;;;0.46;65.56;101206.93;110455;1264;21986;-81
2023/03/17 00:07:04;;;;;;;;;;;;;;;0.44;65.66;101198.01;110850;1263;21966;-81
2023/03/17 00:09:37;;;;;;;214.90;106.40;;;;;;;0.39;66.03;101197.23;110042;1270;21989;-81
2023/03/17 00:12:10;;;;;;;197.80;105.10;;;;;;;0.41;65.99;101199.31;110506;1265;23716;-82
2023/03/17 00:14:43;;;;;;;153.30;87.30;;;;;;;0.44;65.91;101195.59;110331;1265;21971;-82
2023/03/17 00:17:17;;;;;;;162.00;88.40;;;;;;;0.45;65.88;101197.33;110542;1265;23224;-81
2023/03/17 00:19:49;;;;;;;156.30;87.20;;;;;;;0.45;65.71;101189.77;110656;1265;21999;-82
2023/03/17 00:22:21;;;;;;;141.00;82.40;;;;;;;0.45;65.74;101191.50;110663;1265;22185;-83
2023/03/17 00:24:53;;;;;;;127.30;77.00;;;;;;;0.44;65.82;101192.17;110688;1265;22071;-81
2023/03/17 00:27:34;;;;;;;141.70;78.60;;;;;;;0.42;65.86;101184.25;110648;1258;21997;-81
2023/03/17 00:30:07;;;;;;;113.80;68.10;;;;;;;0.39;65.80;101179.23;111106;1258;21966;-81
2023/03/17 00:32:53;;;;;;;115.60;66.30;;;;;;;0.32;65.63;101176.56;111099;1258;21963;-83
2023/03/17 00:35:27;;;;;;;103.60;64.80;;;;;;;0.29;65.79;101172.21;110992;1258;21995;-79
2023/03/17 00:37:58;;;;;;;103.70;63.80;;;;;;;0.27;65.75;101164.48;111339;1258;22145;-81
2023/03/17 00:40:32;;;;;;;95.00;59.70;;;;;;;0.26;65.66;101159.50;110933;1258;22018;-82
2023/03/17 00:43:14;;;;;;;101.60;61.20;;;;;;;0.25;65.63;101159.98;111135;1258;22395;-82
2023/03/17 00:45:45;;;;;;;82.40;52.40;;;;;;;0.24;65.60;101161.17;111116;1258;21973;-82
2023/03/17 00:48:21;;;;;;;88.00;56.90;;;;;;;0.23;65.62;101160.99;111106;1258;21980;-81
2023/03/17 00:50:53;;;;;;;89.40;53.80;;;;;;;0.24;65.79;101162.38;110541;1263;21997;-82
2023/03/17 00:53:22;;;;;;;79.60;49.10;;;;;;;0.27;65.65;101157.61;110145;1269;21975;-82
2023/03/17 00:55:55;;;;;;;79.70;47.30;;;;;;;0.29;65.69;101154.40;110109;1269;23020;-83
2023/03/17 00:58:39;;;;;;;65.40;42.80;;;;;;;0.32;65.56;101146.09;109862;1269;22684;-81
2023/03/17 01:01:13;;;;;;;66.60;41.40;;;;;;;0.33;65.52;101144.05;110232;1269;23047;-81
2023/03/17 01:03:42;;;;;;;59.40;38.30;;;;;;;0.33;65.38;101141.98;110104;1269;23146;-81
2023/03/17 01:06:15;;;;;;;56.80;38.10;;;;;;;0.33;65.40;101148.83;110039;1269;22430;-82
2023/03/17 01:08:44;;;;;;;65.10;39.40;;;;;;;0.30;65.34;101147.41;110165;1265;23079;-81
2023/03/17 01:11:21;;;;;;;59.60;38.70;;;;;;;0.30;65.34;101144.50;109946;1265;22996;-82
2023/03/17 01:14:07;;;;;;;50.60;34.40;;;;;;;0.28;65.20;101142.40;110613;1265;21971;-82
2023/03/17 01:16:59;;;;;;;47.80;31.00;;;;;;;0.21;65.03;101134.40;110601;1265;21936;-82
2023/03/17 01:19:33;;;;;;;45.30;29.80;;;;;;;0.12;65.07;101133.91;110541;1265;21999;-81
2023/03/17 01:22:12;;;;;;;49.30;31.50;;;;;;;0.09;65.11;101133.02;109784;1270;22018;-82
2023/03/17 01:24:57;;;;;;;47.60;30.70;;;;;;;0.09;65.14;101123.42;109760;1270;23035;-83
2023/03/17 01:27:40;;;;;;;50.60;31.60;;;;;;;0.08;65.15;101110.74;109989;1270;21996;-81
2023/03/17 01:30:27;;;;;;;45.90;30.90;;;;;;;0.05;65.13;101107.61;110471;1265;23362;-81
2023/03/17 01:33:00;;;;;;;43.90;28.70;;;;;;;0.02;65.16;101106.20;110679;1265;22008;-82
2023/03/17 01:35:37;;;;;;;48.40;31.10;;;;;;;0.01;65.19;101109.26;110233;1269;23098;-82
2023/03/17 01:38:16;;;;;;;46.10;29.90;;;;;;;0.02;65.20;101108.23;110013;1269;22010;-83
2023/03/17 01:40:52;;;;;;;43.90;28.20;;;;;;;0.03;65.20;101105.02;110489;1262;22037;-81
2023/03/17 01:43:28;;;;;;;50.30;30.20;;;;;;;0.06;65.15;101093.07;110431;1262;21977;-81
2023/03/17 01:46:34;;;;;;;44.00;28.20;;;;;;;0.06;65.12;101086.91;110571;1262;23695;-81
2023/03/17 01:49:46;;;;;;;36.30;25.50;;;;;;;0.01;65.08;101077.94;110713;1262;21971;-82
2023/03/17 01:52:26;;;;;;;43.60;25.60;;;;;;;-0.05;65.24;101082.64;110619;1263;22910;-82
2023/03/17 01:55:17;;;;;;;35.40;23.10;;;;;;;-0.07;65.23;101090.12;111166;1258;24895;-83
2023/03/17 01:57:53;;;;;;;41.50;22.50;;;;;;;-0.08;65.36;101087.89;111166;1258;23774;-81
2023/03/17 02:00:25;;;;;;;38.40;25.10;;;;;;;-0.07;65.24;101080.05;111027;1258;21964;-82
2023/03/17 02:02:56;;;;;;;44.50;27.30;;;;;;;-0.05;65.45;101077.34;111100;1258;21982;-82
2023/03/17 02:05:32;;;;;;;42.80;25.80;;;;;;;0.02;65.52;101075.20;110954;1258;21969;-81
2023/03/17 02:08:00;;;;;;;47.40;27.70;;;;;;;0.06;65.41;101070.66;111084;1258;21956;-81
2023/03/17 02:10:32;;;;;;;41.20;25.50;;;;;;;0.08;65.24;101068.48;111222;1258;22353;-83
2023/03/17 02:13:15;;;;;;;43.00;27.20;;;;;;;0.10;65.21;101071.08;111211;1258;21991;-83
2023/03/17 02:15:53;;;;;;;45.00;29.30;;;;;;;0.09;65.28;101075.52;111237;1259;21973;-84
2023/03/17 02:18:25;;;;;;;45.40;28.40;;;;;;;0.10;65.28;101069.37;111263;1258;22996;-81
2023/03/17 02:21:37;;;;;;;49.50;30.00;;;;;;;0.11;65.15;101065.96;111284;1258;21974;-81
2023/03/17 02:24:36;;;;;;;38.50;26.70;;;;;;;0.05;65.12;101060.73;110838;1262;21980;-81
2023/03/17 02:27:25;;;;;;;43.50;27.60;;;;;;;0.00;65.17;101061.67;110734;1262;22743;-81
2023/03/17 02:30:07;;;;;;;41.40;26.20;;;;;;;-0.03;65.25;101065.73;110638;1261;22542;-81
2023/03/17 02:32:39;;;;;;;42.10;28.40;;;;;;;0.00;65.17;101074.84;111009;1262;23651;-81
2023/03/17 02:35:10;;;;;;;47.60;28.00;;;;;;;0.04;65.16;101081.58;110465;1265;22243;-82
2023/03/17 02:37:47;;;;;;;42.10;27.10;;;;;;;0.04;65.02;101077.64;110884;1262;23237;-83
2023/03/17 02:40:18;;;;;;;47.40;29.30;;;;;;;0.06;65.01;101079.38;110758;1262;21999;-80
2023/03/17 02:42:55;;;;;;;46.80;27.10;;;;;;;0.07;64.95;101080.27;110937;1258;23031;-82
2023/03/17 02:45:41;;;;;;;41.80;27.50;;;;;;;0.08;64.94;101081.30;111212;1259;22108;-81
2023/03/17 02:48:14;;;;;;;41.20;26.60;;;;;;;0.06;64.91;101080.77;111094;1259;22102;-81
2023/03/17 02:50:45;;;;;;;43.40;26.40;;;;;;;0.01;64.90;101085.47;111120;1259;21724;-81
2023/03/17 02:53:22;;;;;;;43.10;28.10;;;;;;;-0.07;65.02;101076.45;111075;1259;24304;-82
2023/03/17 02:56:01;;;;;;;43.60;28.00;;;;;;;-0.10;65.03;101079.27;111317;1259;21981;-82
2023/03/17 02:58:34;;;;;;;42.60;27.40;;;;;;;-0.12;65.14;101078.73;111154;1259;24308;-82
2023/03/17 03:01:02;;;;;;;;;;;;;;;-0.13;65.18;101081.45;111099;1259;21942;-81
2023/03/17 03:03:40;;;;;;;41.90;26.70;;;;;;;-0.26;65.33;101083.63;111154;1259;22276;-81
2023/03/17 03:06:16;;;;;;;41.70;28.80;;;;;;;-0.28;65.41;101078.13;111239;1258;22305;-81
2023/03/17 03:08:55;;;;;;;46.80;29.00;;;;;;;-0.23;65.52;101076.67;111024;1259;23618;-82
2023/03/17 03:11:31;;;;;;;47.10;30.00;;;;;;;-0.19;65.48;101073.50;111149;1258;24204;-80
2023/03/17 03:14:10;;;;;;;;;;;;;;;-0.18;65.33;101072.31;109510;1258;2058150;-82
2023/03/17 03:17:17;;;;;;;46.00;29.30;;;;;;;-0.27;65.50;101069.91;111126;1258;22126;-83
2023/03/17 03:20:02;;;;;;;38.50;27.10;;;;;;;-0.30;65.58;101071.23;110943;1258;23058;-81
2023/03/17 03:22:43;;;;;;;42.80;29.40;;;;;;;-0.28;65.57;101074.52;111211;1258;23787;-82
2023/03/17 03:25:13;;;;;;;60.80;39.90;;;;;;;-0.25;65.58;101071.33;110576;1264;22976;-81
2023/03/17 03:27:52;;;;;;;76.90;43.90;;;;;;;-0.23;65.53;101071.02;110482;1265;21949;-82
2023/03/17 03:30:35;;;;;;;76.90;40.30;;;;;;;-0.26;65.45;101071.83;110358;1262;22320;-82
2023/03/17 03:33:05;;;;;;;78.30;41.60;;;;;;;-0.28;65.50;101068.89;110642;1265;21997;-81
2023/03/17 03:35:39;;;;;;;47.20;28.60;;;;;;;-0.25;65.65;101066.20;110277;1264;23032;-80
2023/03/17 03:38:15;;;;;;;55.70;31.50;;;;;;;-0.24;65.55;101065.70;109755;1271;21991;-81
2023/03/17 03:40:51;;;;;;;49.90;30.20;;;;;;;-0.24;65.58;101065.86;109698;1271;22050;-81
2023/03/17 03:43:28;;;;;;;50.30;28.60;;;;;;;-0.25;65.71;101066.37;110059;1264;23053;-81
2023/03/17 03:46:02;;;;;;;47.70;30.40;;;;;;;-0.26;65.72;101061.73;110493;1265;21977;-82
2023/03/17 03:48:33;;;;;;;40.90;28.50;;;;;;;-0.27;65.74;101053.34;110473;1265;23680;-82
2023/03/17 03:51:03;;;;;;;42.80;27.00;;;;;;;-0.30;65.66;101049.52;110501;1264;22007;-82
2023/03/17 03:53:43;;;;;;;36.00;25.70;;;;;;;-0.32;65.65;101048.46;110670;1265;23749;-81
2023/03/17 03:56:23;;;;;;;41.40;26.70;;;;;;;-0.34;65.61;101049.95;110119;1262;22715;-83
2023/03/17 03:58:53;;;;;;;37.00;25.40;;;;;;;-0.35;65.61;101050.63;110816;1262;22305;-83
2023/03/17 04:01:25;;;;;;;40.40;27.80;;;;;;;-0.34;65.67;101048.77;110821;1262;23724;-81
2023/03/17 04:03:56;;;;;;;41.80;27.90;;;;;;;-0.33;65.71;101051.19;110620;1262;22186;-80
2023/03/17 04:06:26;;;;;;;39.00;25.50;;;;;;;-0.28;65.73;101049.72;110946;1251;23487;-79
2023/03/17 04:08:55;;;;;;;43.90;27.70;;;;;;;-0.26;65.69;101050.11;110775;1262;22818;-81
2023/03/17 04:11:26;;;;;;;43.70;29.10;;;;;;;-0.25;65.51;101050.30;110949;1262;22415;-81
2023/03/17 04:13:57;;;;;;;48.80;30.20;;;;;;;-0.24;65.51;101044.15;110577;1258;21950;-81
2023/03/17 04:16:26;;;;;;;47.70;29.80;;;;;;;-0.22;65.59;101037.85;111024;1258;23042;-81
2023/03/17 04:18:54;;;;;;;47.60;33.00;;;;;;;-0.22;65.53;101036.48;110839;1262;23621;-81
2023/03/17 04:21:40;;;;;;;49.50;34.00;;;;;;;-0.23;65.31;101033.90;110116;1268;22853;-81
2023/03/17 04:24:34;;;;;;;49.70;35.00;;;;;;;-0.25;65.35;101036.09;110157;1268;23706;-81
2023/03/17 04:27:09;;;;;;;50.40;37.70;;;;;;;-0.27;65.37;101039.30;110107;1268;21996;-81
2023/03/17 04:29:48;;;;;;;47.10;33.90;;;;;;;-0.27;65.39;101045.45;110114;1268;22740;-83
2023/03/17 04:32:19;;;;;;;52.80;36.60;;;;;;;-0.30;65.38;101052.41;110052;1268;23009;-81
2023/03/17 04:34:49;;;;;;;47.90;33.90;;;;;;;-0.35;65.32;101056.76;110264;1268;21992;-83
2023/03/17 04:37:29;;;;;;;52.20;36.20;;;;;;;-0.38;65.31;101067.33;110273;1265;21974;-81
2023/03/17 04:40:18;;;;;;;58.30;35.90;;;;;;;-0.38;65.50;101059.80;110190;1264;21982;-81
2023/03/17 04:42:58;;;;;;;98.10;56.40;;;;;;;-0.33;65.51;101056.81;110409;1265;22625;-82
2023/03/17 04:45:33;;;;;;;173.30;90.60;;;;;;;-0.31;65.55;101057.88;110317;1265;22008;-81
2023/03/17 04:48:04;;;;;;;238.80;113.30;;;;;;;-0.29;65.49;101057.57;110112;1269;22217;-82
2023/03/17 04:50:46;;;;;;;162.70;84.80;;;;;;;-0.29;65.45;101059.80;110115;1268;22322;-82
2023/03/17 04:53:17;;;;;;;93.30;59.20;;;;;;;-0.29;65.36;101065.95;110245;1265;23065;-82
2023/03/17 04:55:57;;;;;;;190.50;106.00;;;;;;;-0.30;65.43;101063.20;110229;1269;22519;-81
2023/03/17 04:58:29;;;;;;;247.70;127.90;;;;;;;-0.30;65.30;101063.20;110217;1264;21998;-82
2023/03/17 05:01:01;;;;;;;97.40;56.20;;;;;;;-0.31;65.30;101063.86;110917;1264;23393;-81
2023/03/17 05:03:40;;;;;;;102.50;68.60;;;;;;;-0.30;65.23;101065.26;110574;1264;23705;-80
2023/03/17 05:06:16;;;;;;;208.40;140.70;;;;;;;-0.26;65.21;101063.79;110171;1263;22313;-82
2023/03/17 05:08:44;;;;;;;429.40;279.50;;;;;;;-0.23;65.29;101066.06;110704;1263;22826;-80
2023/03/17 05:11:19;;;;;;;642.20;412.30;;;;;;;-0.15;65.22;101064.14;110395;1263;22004;-82
2023/03/17 05:13:52;;;;;;;670.30;424.60;;;;;;;-0.12;65.21;101062.84;110511;1263;22024;-82
2023/03/17 05:16:24;;;;;;;612.60;383.90;;;;;;;-0.06;65.14;101053.70;110014;1269;22009;-82
2023/03/17 05:18:54;;;;;;;794.90;494.20;;;;;;;-0.02;65.00;101045.55;109228;1273;22285;-83
2023/03/17 05:21:25;;;;;;;483.50;299.70;;;;;;;-0.00;64.92;101042.84;109390;1273;22769;-81
2023/03/17 05:23:58;;;;;;;356.50;204.00;;;;;;;-0.02;64.78;101047.27;109423;1268;21990;-82
2023/03/17 05:26:37;;;;;;;220.30;121.30;;;;;;;-0.03;64.56;101043.13;109693;1268;22067;-81
2023/03/17 05:29:14;;;;;;;429.20;241.80;;;;;;;-0.11;64.51;101041.80;110140;1268;22004;-80
2023/03/17 05:31:46;;;;;;;295.30;156.40;;;;;;;-0.16;64.48;101041.37;110436;1268;21991;-83
2023/03/17 05:34:19;;;;;;;419.70;244.80;;;;;;;-0.16;64.59;101042.91;110315;1265;21987;-81
2023/03/17 05:36:47;;;;;;;349.20;208.70;;;;;;;-0.12;64.61;101047.42;110225;1264;21992;-80
2023/03/17 05:39:24;;;;;;;410.50;250.00;;;;;;;-0.08;64.59;101044.61;110737;1264;23012;-80
2023/03/17 05:42:00;;;;;;;408.40;249.00;;;;;;;-0.03;64.48;101042.10;110808;1264;21990;-82
2023/03/17 05:44:34;;;;;;;356.10;205.00;;;;;;;0.02;64.51;101043.05;110668;1262;21981;-83
2023/03/17 05:47:03;;;;;;;211.20;120.10;;;;;;;0.07;64.50;101043.65;110824;1262;21987;-82
2023/03/17 05:49:44;;;;;;;192.50;96.30;;;;;;;0.15;64.39;101049.94;110954;1262;21983;-81
2023/03/17 05:52:29;;;;;;;201.90;119.20;;;;;;;0.23;64.28;101057.91;110721;1262;22444;-81
2023/03/17 05:55:15;;;;;;;154.50;95.00;;;;;;;0.28;64.16;101053.55;110797;1262;21987;-82
2023/03/17 05:57:50;;;;;;;137.90;91.20;;;;;;;0.32;63.97;101051.56;110715;1262;21974;-82
2023/03/17 06:00:27;;;;;;;102.10;67.00;;;;;;;0.37;63.93;101053.70;110951;1262;21978;-80
2023/03/17 06:03:02;;;;;;;124.20;69.30;;;;;;;0.43;63.99;101057.21;111065;1258;21969;-80
2023/03/17 06:05:36;;;;;;;77.60;45.50;;;;;;;0.51;63.89;101059.56;110941;1258;22993;-80
2023/03/17 06:08:07;;;;;;;59.10;33.50;;;;;;;0.57;63.63;101056.05;111264;1258;21968;-79
2023/03/17 06:10:41;;;;;;;63.20;36.40;;;;;;;0.62;63.30;101057.14;111227;1258;23624;-80
2023/03/17 06:13:14;;;;;;;53.90;33.70;;;;;;;0.68;63.29;101054.14;111210;1257;22002;-80
2023/03/17 06:15:45;;;;;;;60.50;36.40;;;;;;;0.74;63.26;101042.74;110560;1265;24539;-81
2023/03/17 06:18:23;;;;;;;58.60;33.80;;;;;;;0.83;63.13;101040.13;110648;1264;21990;-80
2023/03/17 06:21:01;;;;;;;51.40;31.70;;;;;;;0.91;62.76;101044.16;110683;1265;23109;-81
2023/03/17 06:23:37;;;;;;;49.70;30.80;;;;;;;0.99;62.57;101044.61;110176;1264;23033;-80
2023/03/17 06:26:07;;;;;;;46.20;32.00;;;;;;;1.06;62.63;101046.60;110496;1264;23151;-80
2023/03/17 06:28:49;;;;;;;41.70;28.70;;;;;;;1.17;62.48;101048.45;110297;1264;21978;-80
2023/03/17 06:31:20;;;;;;;;;;;;;;;1.25;62.14;101047.15;110755;1264;24296;-80
2023/03/17 06:33:49;;;;;;;43.40;25.10;;;;;;;1.25;61.91;101046.48;110183;1266;23621;-80
2023/03/17 06:36:20;;;;;;;48.10;28.90;;;;;;;1.34;62.00;101055.50;110552;1266;21991;-80
2023/03/17 06:39:00;;;;;;;;;;;;;;;;;;;;;
2023/03/17 06:41:34;;;;;;;38.30;26.10;;;;;;;1.66;61.62;101053.58;110545;1265;22846;-81
2023/03/17 06:44:08;;;;;;;43.00;27.70;;;;;;;1.84;61.50;101054.80;110295;1265;22845;-79
2023/03/17 06:46:37;;;;;;;45.70;28.70;;;;;;;2.06;61.49;101055.16;110496;1266;22417;-80
2023/03/17 06:49:12;;;;;;;44.50;28.60;;;;;;;2.33;61.27;101061.89;110476;1254;22083;-81
2023/03/17 06:51:48;;;;;;;44.70;27.60;;;;;;;2.64;61.26;101059.86;110663;1259;22035;-80
2023/03/17 06:54:26;;;;;;;48.30;31.80;;;;;;;2.95;60.74;101057.64;110533;1263;23808;-81
2023/03/17 06:56:55;;;;;;;53.00;34.90;;;;;;;3.26;60.07;101062.06;109691;1270;21981;-81
2023/03/17 06:59:29;;;;;;;49.30;33.70;;;;;;;3.57;60.08;101060.44;109708;1270;21979;-80
2023/03/17 07:02:02;;;;;;;47.60;27.70;;;;;;;4.09;60.15;101064.98;109717;1270;24870;-81
2023/03/17 07:04:36;;;;;;;39.70;27.50;;;;;;;4.62;59.26;101068.71;109773;1270;23553;-83
2023/03/17 07:07:18;;;;;;;37.10;25.30;;;;;;;5.13;58.88;101074.10;109376;1270;23051;-81
2023/03/17 07:10:09;;;;;;;39.00;26.70;;;;;;;5.60;57.18;101071.46;109351;1275;23618;-81
2023/03/17 07:12:38;;;;;;;36.40;24.20;;;;;;;6.09;56.51;101064.59;109598;1271;22639;-80
2023/03/17 07:15:08;;;;;;;36.40;23.60;;;;;;;6.49;55.12;101062.34;110408;1257;21961;-82
2023/03/17 07:17:49;;;;;;;35.70;25.30;;;;;;;6.89;53.90;101054.66;110546;1265;21991;-81
2023/03/17 07:20:21;;;;;;;39.10;24.50;;;;;;;7.20;52.27;101052.92;110491;1264;21988;-81
2023/03/17 07:22:55;;;;;;;37.30;22.40;;;;;;;7.48;50.55;101051.69;110630;1265;21975;-82
2023/03/17 07:25:27;;;;;;;31.60;22.70;;;;;;;7.66;48.55;101053.67;110777;1259;23127;-79
2023/03/17 07:28:00;;;;;;;33.60;23.30;;;;;;;7.77;47.99;101051.79;111026;1259;21966;-82
2023/03/17 07:30:37;;;;;;;30.40;21.90;;;;;;;8.00;47.54;101053.52;111000;1258;23704;-82
2023/03/17 07:33:08;;;;;;;35.00;21.40;;;;;;;8.16;45.96;101052.91;110958;1258;21969;-80
2023/03/17 07:35:36;;;;;;;26.00;19.10;;;;;;;8.28;44.81;101047.50;111013;1258;22030;-82
2023/03/17 07:38:16;;;;;;;31.40;21.40;;;;;;;8.47;44.65;101040.09;111027;1258;21992;-81
2023/03/17 07:40:51;;;;;;;31.50;18.70;;;;;;;8.69;44.55;101032.75;111425;1258;21973;-81
2023/03/17 07:43:23;;;;;;;25.50;17.70;;;;;;;8.73;43.36;101025.37;111256;1257;22847;-82
2023/03/17 07:46:04;;;;;;;33.10;19.30;;;;;;;8.69;43.30;101021.48;111419;1258;22948;-83
2023/03/17 07:48:39;;;;;;;30.70;18.30;;;;;;;8.67;43.20;101016.64;110947;1263;22770;-80
2023/03/17 07:51:21;;;;;;;37.90;17.60;;;;;;;8.72;42.15;101008.23;110862;1263;21990;-79
2023/03/17 07:53:51;;;;;;;27.20;16.50;;;;;;;8.65;41.18;100991.19;110487;1263;22723;-82
2023/03/17 07:56:25;;;;;;;26.20;17.60;;;;;;;8.68;41.99;100987.66;110786;1263;21985;-84
2023/03/17 07:58:57;;;;;;;32.10;18.50;;;;;;;8.88;41.52;100993.85;110659;1263;21993;-82
2023/03/17 08:01:29;;;;;;;30.30;16.80;;;;;;;9.01;40.31;100996.52;110774;1263;23596;-83
2023/03/17 08:04:00;;;;;;;32.30;15.80;;;;;;;8.88;38.62;100998.00;110699;1263;22403;-81
2023/03/17 08:06:34;;;;;;;26.00;17.20;;;;;;;8.70;38.11;101003.39;110759;1258;21974;-81
2023/03/17 08:09:06;;;;;;;;;;;;;;;8.59;38.92;101004.64;110937;1258;22713;-81
2023/03/17 08:11:51;;;;;;;27.70;17.40;;;;;;;8.62;39.83;101004.95;111048;1254;21988;-81
2023/03/17 08:14:24;;;;;;;25.80;16.40;;;;;;;8.61;39.11;100998.37;110608;1264;21977;-80
2023/03/17 08:16:54;;;;;;;28.20;18.40;;;;;;;8.53;39.14;100993.83;110033;1270;22009;-81
2023/03/17 08:19:30;;;;;;;26.80;17.80;;;;;;;8.65;39.27;100991.69;109850;1265;22542;-82
2023/03/17 08:22:06;;;;;;;25.00;16.30;;;;;;;8.80;38.29;100993.31;110132;1270;23056;-82
2023/03/17 08:24:36;;;;;;;26.80;15.40;;;;;;;8.85;38.21;100993.55;109938;1270;22835;-84
2023/03/17 08:27:09;;;;;;;20.70;14.00;;;;;;;9.04;38.46;100990.73;109835;1270;22003;-81
2023/03/17 08:29:43;;;;;;;22.40;13.90;;;;;;;9.07;37.61;100985.11;109495;1270;22766;-82
2023/03/17 08:32:12;;;;;;;23.20;14.00;;;;;;;9.12;37.83;100976.34;109441;1270;21993;-82
2023/03/17 08:34:47;;;;;;;22.00;12.80;;;;;;;9.38;38.00;100975.05;109487;1269;21977;-83
2023/03/17 08:37:23;;;;;;;20.30;13.10;;;;;;;9.74;37.37;100975.41;110074;1269;21987;-83
2023/03/17 08:39:58;;;;;;;21.70;13.30;;;;;;;10.05;36.85;100976.91;109999;1269;22067;-76
2023/03/17 08:42:40;;;;;;;18.50;11.00;;;;;;;10.38;36.33;100977.64;109926;1261;22062;-85
2023/03/17 08:45:25;;;;;;;23.30;11.20;;;;;;;10.54;35.05;100968.16;109817;1269;22097;-84
2023/03/17 08:48:22;;;;;;;18.20;13.00;;;;;;;10.24;34.52;100965.27;110122;1269;22751;-81
2023/03/17 08:51:06;;;;;;;21.40;12.70;;;;;;;9.80;34.92;100962.77;110454;1262;23056;-83
2023/03/17 08:53:40;;;;;;;24.40;16.60;;;;;;;9.56;35.49;100965.96;110033;1265;22150;-84
2023/03/17 08:56:16;;;;;;;21.30;13.20;;;;;;;9.41;35.96;100966.11;110360;1260;23046;-86
2023/03/17 08:58:47;;;;;;;21.70;13.40;;;;;;;9.47;35.42;100961.81;110778;1263;21996;-83
2023/03/17 09:01:33;;;;;;;25.10;15.10;;;;;;;9.78;36.01;100951.52;110433;1263;21972;-84
2023/03/17 09:04:07;;;;;;;30.60;13.30;;;;;;;9.96;34.73;100946.88;110711;1258;21971;-84
2023/03/17 09:06:37;;;;;;;18.20;11.70;;;;;;;9.75;34.25;100945.85;110688;1263;22031;-83
2023/03/17 09:09:20;;;;;;;16.50;11.40;;;;;;;9.68;34.59;100943.58;110446;1259;21996;-83
2023/03/17 09:12:06;;;;;;;18.30;11.10;;;;;;;9.67;34.84;100940.47;110494;1263;21989;-84
2023/03/17 09:14:38;;;;;;;21.40;12.00;;;;;;;9.68;35.06;100946.01;110827;1259;24376;-84
2023/03/17 09:17:30;;;;;;;;;;;;;;;;;;;;;
2023/03/17 09:20:05;;;;;;;17.80;11.90;;;;;;;9.93;34.68;100938.80;111145;1258;22019;-85
2023/03/17 09:22:46;;;;;;;18.90;11.90;;;;;;;9.86;34.31;100929.58;111059;1258;22278;-84
2023/03/17 09:25:38;;;;;;;17.80;11.50;;;;;;;9.56;34.67;100939.52;111120;1258;21984;-84
2023/03/17 09:28:26;;;;;;;18.10;11.30;;;;;;;9.38;35.14;100926.94;111029;1258;21969;-83
2023/03/17 09:31:10;;;;;;;14.00;10.40;;;;;;;9.45;35.68;100928.33;110395;1265;23726;-84
2023/03/17 09:33:43;;;;;;;14.10;9.40;;;;;;;9.51;35.27;100930.96;110427;1265;21990;-83
2023/03/17 09:36:22;;;;;;;19.30;12.40;;;;;;;9.60;35.22;100930.93;110364;1265;21970;-84
2023/03/17 09:38:56;;;;;;;16.00;11.30;;;;;;;9.87;35.40;100929.88;110505;1261;21992;-83
2023/03/17 09:42:36;;;;;;;17.80;12.50;;;;;;;10.24;35.11;100928.77;110287;1265;22034;-83
2023/03/17 09:45:17;;;;;;;17.10;12.40;;;;;;;10.55;34.04;100921.48;110184;1265;24321;-84
2023/03/17 09:48:03;;;;;;;18.30;11.30;;;;;;;10.62;33.78;100918.70;110779;1265;21996;-83
2023/03/17 09:51:03;;;;;;;18.00;11.40;;;;;;;10.57;33.60;100920.73;111246;1258;23752;-84
2023/03/17 09:54:03;;;;;;;19.60;12.20;;;;;;;10.49;33.40;100926.54;111342;1258;21965;-84
2023/03/17 09:56:37;;;;;;;15.00;10.20;;;;;;;10.37;33.45;100928.08;111083;1255;23018;-84
2023/03/17 09:59:44;;;;;;;16.20;9.90;;;;;;;10.42;33.31;100926.38;110996;1258;22006;-83
2023/03/17 10:02:30;;;;;;;18.20;10.60;;;;;;;10.31;32.63;100928.41;110495;1265;21999;-84
2023/03/17 10:05:22;;;;;;;16.90;12.10;;;;;;;10.20;33.23;100923.48;110068;1266;22014;-83
2023/03/17 10:08:11;;;;;;;19.30;11.60;;;;;;;10.21;33.18;100926.58;110099;1266;21980;-86
2023/03/17 10:11:15;;;;;;;17.30;10.50;;;;;;;10.22;33.28;100925.70;110627;1266;22746;-82
2023/03/17 10:14:23;;;;;;;16.40;10.30;;;;;;;10.23;32.54;100919.21;110043;1266;22016;-84
2023/03/17 10:17:26;;;;;;;12.40;8.90;;;;;;;10.26;32.08;100923.14;110107;1267;22042;-86
2023/03/17 10:20:07;;;;;;;;;;;;;;;10.19;32.29;100916.01;110167;1266;21957;-85
2023/03/17 10:23:00;;;;;;;15.20;10.30;;;;;;;10.10;32.87;100910.88;110386;1266;22036;-84
2023/03/17 10:25:36;;;;;;;13.90;9.60;;;;;;;10.25;33.32;100915.86;110148;1263;23241;-83
2023/03/17 10:28:28;;;;;;;16.10;9.80;;;;;;;10.37;33.07;100915.02;110151;1266;22992;-83
2023/03/17 10:31:31;;;;;;;17.90;9.20;;;;;;;10.37;32.71;100912.80;110385;1266;22750;-84
2023/03/17 10:34:20;;;;;;;16.90;10.70;;;;;;;10.36;32.76;100912.64;110157;1266;21986;-86
2023/03/17 10:37:07;;;;;;;15.10;8.90;;;;;;;10.43;32.84;100903.55;109426;1273;21980;-86
2023/03/17 10:39:50;;;;;;;12.20;9.60;;;;;;;10.42;32.69;100906.20;109655;1267;21868;-85
2023/03/17 10:42:28;;;;;;;13.70;9.20;;;;;;;10.35;32.53;100908.85;109942;1268;21976;-85
2023/03/17 10:45:31;;;;;;;14.00;9.10;;;;;;;10.26;32.53;100902.80;109436;1273;22153;-87
2023/03/17 10:48:08;;;;;;;13.10;9.60;;;;;;;10.28;32.84;100898.58;109737;1272;22018;-86
2023/03/17 10:50:47;;;;;;;12.30;9.40;;;;;;;10.40;32.90;100892.17;109586;1272;23973;-85
2023/03/17 10:53:27;;;;;;;11.90;9.40;;;;;;;10.56;32.82;100886.14;109634;1272;21983;-85
2023/03/17 10:56:21;;;;;;;14.30;9.70;;;;;;;10.78;33.13;100877.13;110314;1266;21991;-86
2023/03/17 10:58:57;;;;;;;13.90;9.20;;;;;;;11.06;32.12;100871.58;110284;1266;21971;-84
2023/03/17 11:01:46;;;;;;;12.10;8.60;;;;;;;11.06;31.87;100874.02;110315;1266;24454;-84
2023/03/17 11:04:26;;;;;;;14.30;8.80;;;;;;;11.03;32.12;100878.64;109913;1270;21979;-84
2023/03/17 11:07:17;;;;;;;13.20;9.70;;;;;;;11.09;32.33;100875.80;110434;1270;23670;-85
2023/03/17 11:09:51;;;;;;;12.90;9.00;;;;;;;11.08;31.65;100872.05;110351;1264;24537;-84
2023/03/17 11:12:57;;;;;;;12.40;7.80;;;;;;;10.95;31.33;100859.53;110515;1264;22265;-85
2023/03/17 11:15:38;;;;;;;15.90;8.50;;;;;;;10.93;31.45;100849.16;109955;1269;22598;-85
2023/03/17 11:18:47;;;;;;;10.80;8.10;;;;;;;10.93;30.57;100850.90;110243;1268;21990;-83
2023/03/17 11:22:33;;;;;;;11.70;7.90;;;;;;;10.92;30.64;100838.39;109683;1273;22467;-84
2023/03/17 11:25:19;;;;;;;10.20;7.60;;;;;;;10.99;30.35;100829.98;109665;1270;21989;-86
2023/03/17 11:28:19;;;;;;;11.20;7.80;;;;;;;10.90;30.29;100828.20;109763;1273;21941;-84
2023/03/17 11:31:18;;;;;;;14.20;8.40;;;;;;;10.78;30.73;100818.48;109622;1272;21990;-84
2023/03/17 11:34:16;;;;;;;17.10;9.20;;;;;;;10.70;30.93;100809.83;110043;1267;21997;-84
2023/03/17 11:36:57;;;;;;;13.80;8.00;;;;;;;10.49;31.42;100819.16;109669;1271;21973;-82
2023/03/17 11:39:52;;;;;;;12.70;8.40;;;;;;;10.33;32.03;100816.52;109689;1272;22003;-83
2023/03/17 11:42:49;;;;;;;14.90;10.10;;;;;;;10.30;32.12;100815.88;109628;1272;22061;-83
2023/03/17 11:46:03;;;;;;;12.60;8.80;;;;;;;10.23;31.97;100810.84;109790;1272;22007;-82
2023/03/17 11:49:13;;;;;;;11.40;8.40;;;;;;;10.13;32.28;100818.28;109782;1272;22069;-84
2023/03/17 11:51:58;;;;;;;13.60;8.10;;;;;;;10.09;31.91;100829.02;109755;1272;23672;-81
2023/03/17 11:54:51;;;;;;;13.30;9.60;;;;;;;10.15;31.82;100825.35;109928;1256;23773;-81
2023/03/17 11:58:20;;;;;;;14.60;9.10;;;;;;;10.19;31.83;100828.71;110201;1260;23049;-81
2023/03/17 12:00:59;;;;;;;11.70;8.10;;;;;;;10.22;31.90;100828.46;110407;1267;23051;-83
2023/03/17 12:04:01;;;;;;;16.30;10.00;;;;;;;10.23;31.73;100828.60;109615;1272;21991;-82
2023/03/17 12:06:34;;;;;;;;;;;;;;;10.20;31.87;100821.38;109591;1272;22918;-81